sensor_id;sensor_type;location;lat;lon;timestamp;temperature;humidity
15095;DHT22;7648;52.264;9.632;2024-02-26T00:02:30;2.10;99.90
15095;DHT22;7648;52.264;9.632;2024-02-26T00:06:38;2.10;99.90
15095;DHT22;7648;52.264;9.632;2024-02-26T00:10:41;2.00;99.90
15095;DHT22;7648;52.264;9.632;2024-02-26T00:14:45;2.00;99.90
15095;DHT22;7648;52.264;9.632;2024-02-26T00:18:48;1.90;99.90
15095;DHT22;7648;52.264;9.632;2024-02-26T00:22:50;1.80;99.90
15095;DHT22;7648;52.264;9.632;2024-02-26T00:26:52;1.80;99.90
15095;DHT22;7648;52.264;9.632;2024-02-26T00:30:56;1.70;99.90
15095;DHT22;7648;52.264;9.632;2024-02-26T00:34:58;1.70;99.90
15095;DHT22;7648;52.264;9.632;2024-02-26T00:39:00;1.60;99.90
15095;DHT22;7648;52.264;9.632;2024-02-26T00:43:04;1.60;99.90
15095;DHT22;7648;52.264;9.632;2024-02-26T00:47:07;1.60;99.90
15095;DHT22;7648;52.264;9.632;2024-02-26T00:51:09;1.60;99.90
15095;DHT22;7648;52.264;9.632;2024-02-26T00:55:11;1.50;99.90
15095;DHT22;7648;52.264;9.632;2024-02-26T00:59:13;1.50;99.90
15095;DHT22;7648;52.264;9.632;2024-02-26T01:03:17;1.50;99.90
15095;DHT22;7648;52.264;9.632;2024-02-26T01:07:19;1.50;99.90
15095;DHT22;7648;52.264;9.632;2024-02-26T01:11:21;1.50;99.90
15095;DHT22;7648;52.264;9.632;2024-02-26T01:15:23;1.50;99.90
15095;DHT22;7648;52.264;9.632;2024-02-26T01:19:26;1.50;99.90
15095;DHT22;7648;52.264;9.632;2024-02-26T01:23:28;1.50;99.90
15095;DHT22;7648;52.264;9.632;2024-02-26T01:27:30;1.50;99.90
15095;DHT22;7648;52.264;9.632;2024-02-26T01:31:32;1.50;99.90
15095;DHT22;7648;52.264;9.632;2024-02-26T01:35:35;1.60;99.90
15095;DHT22;7648;52.264;9.632;2024-02-26T01:39:37;1.60;99.90
15095;DHT22;7648;52.264;9.632;2024-02-26T01:43:40;1.60;99.90
15095;DHT22;7648;52.264;9.632;2024-02-26T01:47:42;1.50;99.90
15095;DHT22;7648;52.264;9.632;2024-02-26T01:51:46;1.60;99.90
15095;DHT22;7648;52.264;9.632;2024-02-26T01:55:48;1.60;99.90
15095;DHT22;7648;52.264;9.632;2024-02-26T01:59:50;1.60;99.90
15095;DHT22;7648;52.264;9.632;2024-02-26T02:03:54;1.60;99.90
15095;DHT22;7648;52.264;9.632;2024-02-26T02:07:57;1.60;99.90
15095;DHT22;7648;52.264;9.632;2024-02-26T02:12:00;1.60;99.90
15095;DHT22;7648;52.264;9.632;2024-02-26T02:16:03;1.60;99.90
15095;DHT22;7648;52.264;9.632;2024-02-26T02:20:08;1.60;99.90
15095;DHT22;7648;52.264;9.632;2024-02-26T02:24:12;1.50;99.90
15095;DHT22;7648;52.264;9.632;2024-02-26T02:28:14;1.50;99.90
15095;DHT22;7648;52.264;9.632;2024-02-26T02:32:17;1.50;99.90
15095;DHT22;7648;52.264;9.632;2024-02-26T02:36:19;1.40;99.90
15095;DHT22;7648;52.264;9.632;2024-02-26T02:40:22;1.30;99.90
15095;DHT22;7648;52.264;9.632;2024-02-26T02:44:24;1.30;99.90
15095;DHT22;7648;52.264;9.632;2024-02-26T02:48:26;1.20;99.90
15095;DHT22;7648;52.264;9.632;2024-02-26T02:52:28;1.10;99.90
15095;DHT22;7648;52.264;9.632;2024-02-26T02:56:32;1.10;99.90
15095;DHT22;7648;52.264;9.632;2024-02-26T03:00:34;1.00;99.90
15095;DHT22;7648;52.264;9.632;2024-02-26T03:04:35;1.10;99.90
15095;DHT22;7648;52.264;9.632;2024-02-26T03:08:37;1.10;99.90
15095;DHT22;7648;52.264;9.632;2024-02-26T03:12:41;1.10;99.90
15095;DHT22;7648;52.264;9.632;2024-02-26T03:16:43;1.10;99.90
15095;DHT22;7648;52.264;9.632;2024-02-26T03:20:45;1.00;99.90
15095;DHT22;7648;52.264;9.632;2024-02-26T03:24:47;1.00;99.90
15095;DHT22;7648;52.264;9.632;2024-02-26T03:28:51;1.10;99.90
15095;DHT22;7648;52.264;9.632;2024-02-26T03:32:52;1.00;99.90
15095;DHT22;7648;52.264;9.632;2024-02-26T03:36:54;1.00;99.90
15095;DHT22;7648;52.264;9.632;2024-02-26T03:40:56;1.00;99.90
15095;DHT22;7648;52.264;9.632;2024-02-26T03:45:00;1.00;99.90
15095;DHT22;7648;52.264;9.632;2024-02-26T03:49:01;1.00;99.90
15095;DHT22;7648;52.264;9.632;2024-02-26T03:53:04;1.00;99.90
15095;DHT22;7648;52.264;9.632;2024-02-26T03:57:06;1.00;99.90
15095;DHT22;7648;52.264;9.632;2024-02-26T04:01:09;1.00;99.90
15095;DHT22;7648;52.264;9.632;2024-02-26T04:05:11;1.00;99.90
15095;DHT22;7648;52.264;9.632;2024-02-26T04:09:13;1.10;99.90
15095;DHT22;7648;52.264;9.632;2024-02-26T04:13:16;1.10;99.90
15095;DHT22;7648;52.264;9.632;2024-02-26T04:17:20;1.20;99.90
15095;DHT22;7648;52.264;9.632;2024-02-26T04:21:22;1.30;99.90
15095;DHT22;7648;52.264;9.632;2024-02-26T04:25:23;1.30;99.90
15095;DHT22;7648;52.264;9.632;2024-02-26T04:29:25;1.30;99.90
15095;DHT22;7648;52.264;9.632;2024-02-26T04:33:29;1.40;99.90
15095;DHT22;7648;52.264;9.632;2024-02-26T04:37:31;1.40;99.90
15095;DHT22;7648;52.264;9.632;2024-02-26T04:41:33;1.50;99.90
15095;DHT22;7648;52.264;9.632;2024-02-26T04:45:34;1.50;99.90
15095;DHT22;7648;52.264;9.632;2024-02-26T04:49:38;1.60;99.90
15095;DHT22;7648;52.264;9.632;2024-02-26T04:53:40;1.60;99.90
15095;DHT22;7648;52.264;9.632;2024-02-26T04:57:42;1.60;99.90
15095;DHT22;7648;52.264;9.632;2024-02-26T05:01:44;1.60;99.90
15095;DHT22;7648;52.264;9.632;2024-02-26T05:05:47;1.70;99.90
15095;DHT22;7648;52.264;9.632;2024-02-26T05:09:49;1.70;99.90
15095;DHT22;7648;52.264;9.632;2024-02-26T05:13:51;1.80;99.90
15095;DHT22;7648;52.264;9.632;2024-02-26T05:17:53;1.80;99.90
15095;DHT22;7648;52.264;9.632;2024-02-26T05:21:56;1.80;99.90
15095;DHT22;7648;52.264;9.632;2024-02-26T05:25:58;1.90;99.90
15095;DHT22;7648;52.264;9.632;2024-02-26T05:30:00;1.90;99.90
15095;DHT22;7648;52.264;9.632;2024-02-26T05:34:02;2.00;99.90
15095;DHT22;7648;52.264;9.632;2024-02-26T05:38:05;2.00;99.90
15095;DHT22;7648;52.264;9.632;2024-02-26T05:42:08;2.00;99.90
15095;DHT22;7648;52.264;9.632;2024-02-26T05:46:10;2.10;99.90
15095;DHT22;7648;52.264;9.632;2024-02-26T05:50:12;2.10;99.90
15095;DHT22;7648;52.264;9.632;2024-02-26T05:54:17;2.10;99.90
15095;DHT22;7648;52.264;9.632;2024-02-26T05:58:19;2.10;99.90
15095;DHT22;7648;52.264;9.632;2024-02-26T06:02:21;2.20;99.90
15095;DHT22;7648;52.264;9.632;2024-02-26T06:06:23;2.20;99.90
15095;DHT22;7648;52.264;9.632;2024-02-26T06:10:26;2.20;99.90
15095;DHT22;7648;52.264;9.632;2024-02-26T06:14:28;2.20;99.90
15095;DHT22;7648;52.264;9.632;2024-02-26T06:18:31;2.20;99.90
15095;DHT22;7648;52.264;9.632;2024-02-26T06:22:32;2.30;99.90
15095;DHT22;7648;52.264;9.632;2024-02-26T06:26:36;2.30;99.90
15095;DHT22;7648;52.264;9.632;2024-02-26T06:30:38;2.30;99.90
15095;DHT22;7648;52.264;9.632;2024-02-26T06:34:39;2.30;99.90
15095;DHT22;7648;52.264;9.632;2024-02-26T06:38:42;2.30;99.90
15095;DHT22;7648;52.264;9.632;2024-02-26T06:42:45;2.30;99.90
15095;DHT22;7648;52.264;9.632;2024-02-26T06:46:47;2.40;99.90
15095;DHT22;7648;52.264;9.632;2024-02-26T06:50:49;2.40;99.90
15095;DHT22;7648;52.264;9.632;2024-02-26T06:54:51;2.40;99.90
15095;DHT22;7648;52.264;9.632;2024-02-26T06:58:54;2.50;99.90
15095;DHT22;7648;52.264;9.632;2024-02-26T07:02:56;2.60;99.90
15095;DHT22;7648;52.264;9.632;2024-02-26T07:06:59;2.60;99.90
15095;DHT22;7648;52.264;9.632;2024-02-26T07:11:00;2.60;99.90
15095;DHT22;7648;52.264;9.632;2024-02-26T07:15:05;2.70;99.90
15095;DHT22;7648;52.264;9.632;2024-02-26T07:19:08;2.70;99.90
15095;DHT22;7648;52.264;9.632;2024-02-26T07:23:10;2.80;99.90
15095;DHT22;7648;52.264;9.632;2024-02-26T07:27:13;2.80;99.90
15095;DHT22;7648;52.264;9.632;2024-02-26T07:31:19;2.90;99.90
15095;DHT22;7648;52.264;9.632;2024-02-26T07:35:21;3.00;99.90
15095;DHT22;7648;52.264;9.632;2024-02-26T07:39:25;3.10;99.90
15095;DHT22;7648;52.264;9.632;2024-02-26T07:43:28;3.20;99.90
15095;DHT22;7648;52.264;9.632;2024-02-26T07:47:31;3.30;99.90
15095;DHT22;7648;52.264;9.632;2024-02-26T07:51:35;3.40;99.90
15095;DHT22;7648;52.264;9.632;2024-02-26T07:55:37;3.50;99.90
15095;DHT22;7648;52.264;9.632;2024-02-26T07:59:40;3.50;99.90
15095;DHT22;7648;52.264;9.632;2024-02-26T08:03:44;3.60;99.90
15095;DHT22;7648;52.264;9.632;2024-02-26T08:07:45;3.70;99.90
15095;DHT22;7648;52.264;9.632;2024-02-26T08:11:48;3.80;99.90
15095;DHT22;7648;52.264;9.632;2024-02-26T08:15:50;3.80;99.90
15095;DHT22;7648;52.264;9.632;2024-02-26T08:19:53;3.90;99.90
15095;DHT22;7648;52.264;9.632;2024-02-26T08:23:55;3.90;99.90
15095;DHT22;7648;52.264;9.632;2024-02-26T08:27:57;4.00;99.90
15095;DHT22;7648;52.264;9.632;2024-02-26T08:31:59;4.00;99.90
15095;DHT22;7648;52.264;9.632;2024-02-26T08:36:05;4.10;99.90
15095;DHT22;7648;52.264;9.632;2024-02-26T08:40:08;4.20;99.90
15095;DHT22;7648;52.264;9.632;2024-02-26T08:44:10;4.30;99.90
15095;DHT22;7648;52.264;9.632;2024-02-26T08:48:12;4.30;99.90
15095;DHT22;7648;52.264;9.632;2024-02-26T08:52:15;4.40;99.90
15095;DHT22;7648;52.264;9.632;2024-02-26T08:56:17;4.40;99.90
15095;DHT22;7648;52.264;9.632;2024-02-26T09:00:19;4.40;99.90
15095;DHT22;7648;52.264;9.632;2024-02-26T09:04:22;4.40;99.90
15095;DHT22;7648;52.264;9.632;2024-02-26T09:08:25;4.50;99.90
15095;DHT22;7648;52.264;9.632;2024-02-26T09:12:27;4.70;99.90
15095;DHT22;7648;52.264;9.632;2024-02-26T09:16:29;4.70;99.90
15095;DHT22;7648;52.264;9.632;2024-02-26T09:20:31;4.70;99.90
15095;DHT22;7648;52.264;9.632;2024-02-26T09:24:35;4.80;99.90
15095;DHT22;7648;52.264;9.632;2024-02-26T09:28:37;4.90;99.90
15095;DHT22;7648;52.264;9.632;2024-02-26T09:32:40;4.90;99.90
15095;DHT22;7648;52.264;9.632;2024-02-26T09:36:42;5.00;99.90
15095;DHT22;7648;52.264;9.632;2024-02-26T09:40:46;5.10;99.90
15095;DHT22;7648;52.264;9.632;2024-02-26T09:44:51;5.20;99.90
15095;DHT22;7648;52.264;9.632;2024-02-26T09:48:54;5.30;99.90
15095;DHT22;7648;52.264;9.632;2024-02-26T09:52:56;5.30;99.90
15095;DHT22;7648;52.264;9.632;2024-02-26T09:57:03;5.30;99.90
15095;DHT22;7648;52.264;9.632;2024-02-26T10:01:10;5.40;99.90
15095;DHT22;7648;52.264;9.632;2024-02-26T10:05:14;5.50;99.90
15095;DHT22;7648;52.264;9.632;2024-02-26T10:09:18;5.50;99.90
15095;DHT22;7648;52.264;9.632;2024-02-26T10:13:22;5.60;99.90
15095;DHT22;7648;52.264;9.632;2024-02-26T10:17:25;5.70;99.90
15095;DHT22;7648;52.264;9.632;2024-02-26T10:21:28;5.70;99.90
15095;DHT22;7648;52.264;9.632;2024-02-26T10:25:30;5.80;99.90
15095;DHT22;7648;52.264;9.632;2024-02-26T10:29:34;5.90;99.90
15095;DHT22;7648;52.264;9.632;2024-02-26T10:33:37;6.00;99.90
15095;DHT22;7648;52.264;9.632;2024-02-26T10:37:40;6.00;99.90
15095;DHT22;7648;52.264;9.632;2024-02-26T10:41:43;6.10;99.90
15095;DHT22;7648;52.264;9.632;2024-02-26T10:45:46;6.10;99.90
15095;DHT22;7648;52.264;9.632;2024-02-26T10:49:48;6.20;99.90
15095;DHT22;7648;52.264;9.632;2024-02-26T10:53:55;6.40;99.90
15095;DHT22;7648;52.264;9.632;2024-02-26T10:57:58;6.50;99.90
15095;DHT22;7648;52.264;9.632;2024-02-26T11:02:02;6.60;99.90
15095;DHT22;7648;52.264;9.632;2024-02-26T11:06:05;6.70;99.90
15095;DHT22;7648;52.264;9.632;2024-02-26T11:10:09;6.70;99.90
15095;DHT22;7648;52.264;9.632;2024-02-26T11:14:14;6.70;99.90
15095;DHT22;7648;52.264;9.632;2024-02-26T11:18:19;6.80;99.90
15095;DHT22;7648;52.264;9.632;2024-02-26T11:22:21;7.00;99.90
15095;DHT22;7648;52.264;9.632;2024-02-26T11:26:24;7.20;99.90
15095;DHT22;7648;52.264;9.632;2024-02-26T11:30:30;7.40;99.90
15095;DHT22;7648;52.264;9.632;2024-02-26T11:34:34;7.60;99.90
15095;DHT22;7648;52.264;9.632;2024-02-26T11:38:36;7.80;99.90
15095;DHT22;7648;52.264;9.632;2024-02-26T11:42:43;8.00;99.90
15095;DHT22;7648;52.264;9.632;2024-02-26T11:46:47;8.20;99.90
15095;DHT22;7648;52.264;9.632;2024-02-26T11:50:51;8.40;99.90
15095;DHT22;7648;52.264;9.632;2024-02-26T11:54:56;8.50;99.90
15095;DHT22;7648;52.264;9.632;2024-02-26T11:59:00;8.50;99.90
15095;DHT22;7648;52.264;9.632;2024-02-26T12:03:03;8.50;99.90
15095;DHT22;7648;52.264;9.632;2024-02-26T12:07:12;8.60;99.90
15095;DHT22;7648;52.264;9.632;2024-02-26T12:11:14;8.70;99.90
15095;DHT22;7648;52.264;9.632;2024-02-26T12:15:17;8.80;99.90
15095;DHT22;7648;52.264;9.632;2024-02-26T12:19:21;8.80;99.90
15095;DHT22;7648;52.264;9.632;2024-02-26T12:23:25;8.80;99.90
15095;DHT22;7648;52.264;9.632;2024-02-26T12:27:27;8.90;99.90
15095;DHT22;7648;52.264;9.632;2024-02-26T12:31:29;8.90;99.90
15095;DHT22;7648;52.264;9.632;2024-02-26T12:35:31;9.00;99.90
15095;DHT22;7648;52.264;9.632;2024-02-26T12:39:35;9.10;99.90
15095;DHT22;7648;52.264;9.632;2024-02-26T12:43:38;9.10;99.90
15095;DHT22;7648;52.264;9.632;2024-02-26T12:47:40;9.00;99.90
15095;DHT22;7648;52.264;9.632;2024-02-26T12:51:43;9.00;99.90
15095;DHT22;7648;52.264;9.632;2024-02-26T12:55:47;9.10;99.90
15095;DHT22;7648;52.264;9.632;2024-02-26T12:59:49;9.10;99.90
15095;DHT22;7648;52.264;9.632;2024-02-26T13:03:52;9.00;99.90
15095;DHT22;7648;52.264;9.632;2024-02-26T13:07:55;9.00;99.90
15095;DHT22;7648;52.264;9.632;2024-02-26T13:11:58;9.00;99.90
15095;DHT22;7648;52.264;9.632;2024-02-26T13:16:02;9.10;99.90
15095;DHT22;7648;52.264;9.632;2024-02-26T13:20:09;9.20;99.90
15095;DHT22;7648;52.264;9.632;2024-02-26T13:24:13;9.20;99.90
15095;DHT22;7648;52.264;9.632;2024-02-26T13:28:17;9.20;99.90
15095;DHT22;7648;52.264;9.632;2024-02-26T13:32:22;9.10;99.90
15095;DHT22;7648;52.264;9.632;2024-02-26T13:36:32;9.10;99.90
15095;DHT22;7648;52.264;9.632;2024-02-26T13:40:43;9.00;99.90
15095;DHT22;7648;52.264;9.632;2024-02-26T13:44:51;9.00;99.90
15095;DHT22;7648;52.264;9.632;2024-02-26T13:48:56;9.00;99.90
15095;DHT22;7648;52.264;9.632;2024-02-26T13:53:00;9.00;99.90
15095;DHT22;7648;52.264;9.632;2024-02-26T13:57:03;8.90;99.90
15095;DHT22;7648;52.264;9.632;2024-02-26T14:01:06;8.90;99.90
15095;DHT22;7648;52.264;9.632;2024-02-26T14:05:09;8.80;99.90
15095;DHT22;7648;52.264;9.632;2024-02-26T14:09:12;8.70;99.90
15095;DHT22;7648;52.264;9.632;2024-02-26T14:13:19;8.70;99.90
15095;DHT22;7648;52.264;9.632;2024-02-26T14:17:22;8.60;99.90
15095;DHT22;7648;52.264;9.632;2024-02-26T14:21:24;8.60;99.90
15095;DHT22;7648;52.264;9.632;2024-02-26T14:25:27;8.60;99.90
15095;DHT22;7648;52.264;9.632;2024-02-26T14:29:29;8.60;99.90
15095;DHT22;7648;52.264;9.632;2024-02-26T14:33:33;8.70;99.90
15095;DHT22;7648;52.264;9.632;2024-02-26T14:37:34;8.60;99.90
15095;DHT22;7648;52.264;9.632;2024-02-26T14:41:36;8.60;99.90
15095;DHT22;7648;52.264;9.632;2024-02-26T14:45:38;8.60;99.90
15095;DHT22;7648;52.264;9.632;2024-02-26T14:49:42;8.60;99.90
15095;DHT22;7648;52.264;9.632;2024-02-26T14:53:46;8.50;99.90
15095;DHT22;7648;52.264;9.632;2024-02-26T14:57:48;8.40;99.90
15095;DHT22;7648;52.264;9.632;2024-02-26T15:01:50;8.40;99.90
15095;DHT22;7648;52.264;9.632;2024-02-26T15:05:53;8.50;99.90
15095;DHT22;7648;52.264;9.632;2024-02-26T15:09:55;8.50;99.90
15095;DHT22;7648;52.264;9.632;2024-02-26T15:14:00;8.40;99.90
15095;DHT22;7648;52.264;9.632;2024-02-26T15:18:02;8.40;99.90
15095;DHT22;7648;52.264;9.632;2024-02-26T15:22:05;8.40;99.90
15095;DHT22;7648;52.264;9.632;2024-02-26T15:26:07;8.30;99.90
15095;DHT22;7648;52.264;9.632;2024-02-26T15:30:10;8.40;99.90
15095;DHT22;7648;52.264;9.632;2024-02-26T15:34:12;8.40;99.90
15095;DHT22;7648;52.264;9.632;2024-02-26T15:38:15;8.40;99.90
15095;DHT22;7648;52.264;9.632;2024-02-26T15:42:17;8.40;99.90
15095;DHT22;7648;52.264;9.632;2024-02-26T15:46:19;8.40;99.90
15095;DHT22;7648;52.264;9.632;2024-02-26T15:50:21;8.40;99.90
15095;DHT22;7648;52.264;9.632;2024-02-26T15:54:25;8.40;99.90
15095;DHT22;7648;52.264;9.632;2024-02-26T15:58:27;8.30;99.90
15095;DHT22;7648;52.264;9.632;2024-02-26T16:02:29;8.30;99.90
15095;DHT22;7648;52.264;9.632;2024-02-26T16:06:34;8.20;99.90
15095;DHT22;7648;52.264;9.632;2024-02-26T16:10:39;8.20;99.90
15095;DHT22;7648;52.264;9.632;2024-02-26T16:14:46;8.10;99.90
15095;DHT22;7648;52.264;9.632;2024-02-26T16:18:48;8.10;99.90
15095;DHT22;7648;52.264;9.632;2024-02-26T16:22:50;8.00;99.90
15095;DHT22;7648;52.264;9.632;2024-02-26T16:26:54;8.00;99.90
15095;DHT22;7648;52.264;9.632;2024-02-26T16:30:56;7.90;99.90
15095;DHT22;7648;52.264;9.632;2024-02-26T16:34:59;7.90;99.90
15095;DHT22;7648;52.264;9.632;2024-02-26T16:39:01;7.90;99.90
15095;DHT22;7648;52.264;9.632;2024-02-26T16:43:05;7.90;99.90
15095;DHT22;7648;52.264;9.632;2024-02-26T16:47:07;7.80;99.90
15095;DHT22;7648;52.264;9.632;2024-02-26T16:51:09;7.80;99.90
15095;DHT22;7648;52.264;9.632;2024-02-26T16:55:11;7.80;99.90
15095;DHT22;7648;52.264;9.632;2024-02-26T16:59:15;7.80;99.90
15095;DHT22;7648;52.264;9.632;2024-02-26T17:03:17;7.70;99.90
15095;DHT22;7648;52.264;9.632;2024-02-26T17:07:19;7.60;99.90
15095;DHT22;7648;52.264;9.632;2024-02-26T17:11:21;7.70;99.90
15095;DHT22;7648;52.264;9.632;2024-02-26T17:15:26;7.60;99.90
15095;DHT22;7648;52.264;9.632;2024-02-26T17:19:28;7.60;99.90
15095;DHT22;7648;52.264;9.632;2024-02-26T17:23:30;7.50;99.90
15095;DHT22;7648;52.264;9.632;2024-02-26T17:27:33;7.50;99.90
15095;DHT22;7648;52.264;9.632;2024-02-26T17:31:36;7.50;99.90
15095;DHT22;7648;52.264;9.632;2024-02-26T17:35:42;7.50;99.90
15095;DHT22;7648;52.264;9.632;2024-02-26T17:39:44;7.40;99.90
15095;DHT22;7648;52.264;9.632;2024-02-26T17:43:46;7.40;99.90
15095;DHT22;7648;52.264;9.632;2024-02-26T17:47:49;7.40;99.90
15095;DHT22;7648;52.264;9.632;2024-02-26T17:51:52;7.30;99.90
15095;DHT22;7648;52.264;9.632;2024-02-26T17:55:54;7.30;99.90
15095;DHT22;7648;52.264;9.632;2024-02-26T17:59:56;7.20;99.90
15095;DHT22;7648;52.264;9.632;2024-02-26T18:03:59;7.20;99.90
15095;DHT22;7648;52.264;9.632;2024-02-26T18:08:01;7.20;99.90
15095;DHT22;7648;52.264;9.632;2024-02-26T18:12:04;7.20;99.90
15095;DHT22;7648;52.264;9.632;2024-02-26T18:16:06;7.20;99.90
15095;DHT22;7648;52.264;9.632;2024-02-26T18:20:10;7.20;99.90
15095;DHT22;7648;52.264;9.632;2024-02-26T18:24:12;7.20;99.90
15095;DHT22;7648;52.264;9.632;2024-02-26T18:28:17;7.20;99.90
15095;DHT22;7648;52.264;9.632;2024-02-26T18:32:19;7.20;99.90
15095;DHT22;7648;52.264;9.632;2024-02-26T18:36:23;7.20;99.90
15095;DHT22;7648;52.264;9.632;2024-02-26T18:40:25;7.20;99.90
15095;DHT22;7648;52.264;9.632;2024-02-26T18:44:28;7.20;99.90
15095;DHT22;7648;52.264;9.632;2024-02-26T18:48:31;7.20;99.90
15095;DHT22;7648;52.264;9.632;2024-02-26T18:52:34;7.30;99.90
15095;DHT22;7648;52.264;9.632;2024-02-26T18:56:37;7.30;99.90
15095;DHT22;7648;52.264;9.632;2024-02-26T19:00:39;7.30;99.90
15095;DHT22;7648;52.264;9.632;2024-02-26T19:04:41;7.30;99.90
15095;DHT22;7648;52.264;9.632;2024-02-26T19:08:46;7.40;99.90
15095;DHT22;7648;52.264;9.632;2024-02-26T19:12:48;7.40;99.90
15095;DHT22;7648;52.264;9.632;2024-02-26T19:16:49;7.40;99.90
15095;DHT22;7648;52.264;9.632;2024-02-26T19:20:51;7.40;99.90
15095;DHT22;7648;52.264;9.632;2024-02-26T19:24:55;7.40;99.90
15095;DHT22;7648;52.264;9.632;2024-02-26T19:28:57;7.40;99.90
15095;DHT22;7648;52.264;9.632;2024-02-26T19:32:59;7.40;99.90
15095;DHT22;7648;52.264;9.632;2024-02-26T19:37:01;7.30;99.90
15095;DHT22;7648;52.264;9.632;2024-02-26T19:41:05;7.30;99.90
15095;DHT22;7648;52.264;9.632;2024-02-26T19:45:08;7.30;99.90
15095;DHT22;7648;52.264;9.632;2024-02-26T19:49:12;7.20;99.90
15095;DHT22;7648;52.264;9.632;2024-02-26T19:53:14;7.20;99.90
15095;DHT22;7648;52.264;9.632;2024-02-26T19:57:18;7.20;99.90
15095;DHT22;7648;52.264;9.632;2024-02-26T20:01:20;7.20;99.90
15095;DHT22;7648;52.264;9.632;2024-02-26T20:05:21;7.20;99.90
15095;DHT22;7648;52.264;9.632;2024-02-26T20:09:23;7.20;99.90
15095;DHT22;7648;52.264;9.632;2024-02-26T20:13:32;7.10;99.90
15095;DHT22;7648;52.264;9.632;2024-02-26T20:17:34;7.10;99.90
15095;DHT22;7648;52.264;9.632;2024-02-26T20:21:36;7.10;99.90
15095;DHT22;7648;52.264;9.632;2024-02-26T20:25:40;7.00;99.90
15095;DHT22;7648;52.264;9.632;2024-02-26T20:29:43;7.00;99.90
15095;DHT22;7648;52.264;9.632;2024-02-26T20:33:45;7.00;99.90
15095;DHT22;7648;52.264;9.632;2024-02-26T20:37:48;7.00;99.90
15095;DHT22;7648;52.264;9.632;2024-02-26T20:41:50;6.90;99.90
15095;DHT22;7648;52.264;9.632;2024-02-26T20:45:53;6.90;99.90
15095;DHT22;7648;52.264;9.632;2024-02-26T20:49:55;6.90;99.90
15095;DHT22;7648;52.264;9.632;2024-02-26T20:53:57;6.90;99.90
15095;DHT22;7648;52.264;9.632;2024-02-26T20:58:00;6.80;99.90
15095;DHT22;7648;52.264;9.632;2024-02-26T21:02:03;6.80;99.90
15095;DHT22;7648;52.264;9.632;2024-02-26T21:06:05;6.70;99.90
15095;DHT22;7648;52.264;9.632;2024-02-26T21:10:08;6.70;99.90
15095;DHT22;7648;52.264;9.632;2024-02-26T21:14:10;6.60;99.90
15095;DHT22;7648;52.264;9.632;2024-02-26T21:18:14;6.60;99.90
15095;DHT22;7648;52.264;9.632;2024-02-26T21:22:16;6.60;99.90
15095;DHT22;7648;52.264;9.632;2024-02-26T21:26:18;6.60;99.90
15095;DHT22;7648;52.264;9.632;2024-02-26T21:30:20;6.50;99.90
15095;DHT22;7648;52.264;9.632;2024-02-26T21:34:23;6.40;99.90
15095;DHT22;7648;52.264;9.632;2024-02-26T21:38:26;6.40;99.90
15095;DHT22;7648;52.264;9.632;2024-02-26T21:42:30;6.40;99.90
15095;DHT22;7648;52.264;9.632;2024-02-26T21:46:32;6.30;99.90
15095;DHT22;7648;52.264;9.632;2024-02-26T21:50:35;6.20;99.90
15095;DHT22;7648;52.264;9.632;2024-02-26T21:54:46;6.20;99.90
15095;DHT22;7648;52.264;9.632;2024-02-26T21:58:48;6.20;99.90
15095;DHT22;7648;52.264;9.632;2024-02-26T22:02:51;6.10;99.90
15095;DHT22;7648;52.264;9.632;2024-02-26T22:06:54;6.10;99.90
15095;DHT22;7648;52.264;9.632;2024-02-26T22:10:56;5.90;99.90
15095;DHT22;7648;52.264;9.632;2024-02-26T22:14:58;5.80;99.90
15095;DHT22;7648;52.264;9.632;2024-02-26T22:19:00;5.80;99.90
15095;DHT22;7648;52.264;9.632;2024-02-26T22:23:04;5.80;99.90
15095;DHT22;7648;52.264;9.632;2024-02-26T22:27:06;5.70;99.90
15095;DHT22;7648;52.264;9.632;2024-02-26T22:31:08;5.60;99.90
15095;DHT22;7648;52.264;9.632;2024-02-26T22:35:11;5.50;99.90
15095;DHT22;7648;52.264;9.632;2024-02-26T22:39:14;5.40;99.90
15095;DHT22;7648;52.264;9.632;2024-02-26T22:43:16;5.40;99.90
15095;DHT22;7648;52.264;9.632;2024-02-26T22:47:18;5.30;99.90
15095;DHT22;7648;52.264;9.632;2024-02-26T22:51:20;5.30;99.90
15095;DHT22;7648;52.264;9.632;2024-02-26T22:55:24;5.30;99.90
15095;DHT22;7648;52.264;9.632;2024-02-26T22:59:26;5.20;99.90
15095;DHT22;7648;52.264;9.632;2024-02-26T23:03:27;5.20;99.90
15095;DHT22;7648;52.264;9.632;2024-02-26T23:07:29;5.20;99.90
15095;DHT22;7648;52.264;9.632;2024-02-26T23:11:33;5.10;99.90
15095;DHT22;7648;52.264;9.632;2024-02-26T23:15:35;5.10;99.90
15095;DHT22;7648;52.264;9.632;2024-02-26T23:19:36;5.00;99.90
15095;DHT22;7648;52.264;9.632;2024-02-26T23:23:38;5.00;99.90
15095;DHT22;7648;52.264;9.632;2024-02-26T23:27:43;4.90;99.90
15095;DHT22;7648;52.264;9.632;2024-02-26T23:31:45;4.90;99.90
15095;DHT22;7648;52.264;9.632;2024-02-26T23:35:47;4.90;99.90
15095;DHT22;7648;52.264;9.632;2024-02-26T23:39:49;4.80;99.90
15095;DHT22;7648;52.264;9.632;2024-02-26T23:43:53;4.80;99.90
15095;DHT22;7648;52.264;9.632;2024-02-26T23:47:55;4.80;99.90
15095;DHT22;7648;52.264;9.632;2024-02-26T23:51:56;4.80;99.90
15095;DHT22;7648;52.264;9.632;2024-02-26T23:55:58;4.80;99.90
